PDT,Max TemperatureF,Mean TemperatureF,Min TemperatureF,Max Dew PointF,MeanDew PointF,Min DewpointF,Max Humidity, Mean Humidity, Min Humidity, Max Sea Level PressureIn, Mean Sea Level PressureIn, Min Sea Level PressureIn, Max VisibilityMiles, Mean VisibilityMiles, Min VisibilityMiles, Max Wind SpeedMPH, Mean Wind SpeedMPH, Max Gust SpeedMPH,PrecipitationIn, CloudCover, Events, WindDirDegrees
2013-6-1,87,78,68,62,60,59,78,61,44,29.86,29.80,29.75,10,9,4,13,4,16,0.00,4,,202
2013-6-2,76,72,68,59,58,55,73,64,54,29.83,29.79,29.76,10,10,9,10,4,16,0.00,7,,195
2013-6-3,77,72,66,57,56,55,68,59,50,29.89,29.85,29.80,10,10,10,13,5,18,0.00,6,,187
2013-6-4,79,72,65,56,56,55,73,59,45,29.97,29.92,29.88,10,10,10,12,4,16,0.00,5,,219
2013-6-5,81,74,66,56,55,53,68,54,39,29.99,29.95,29.90,10,10,10,14,4,18,0.00,4,,287
2013-6-6,78,71,64,58,56,55,73,62,50,29.94,29.91,29.86,10,9,6,12,3,17,0.00,4,,250
2013-6-7,79,72,64,58,56,55,73,61,48,29.90,29.84,29.78,10,9,6,12,3,17,0.00,5,,213
2013-6-8,75,70,65,58,57,55,78,66,54,29.90,29.85,29.79,10,10,10,12,4,17,0.00,6,,195
2013-6-9,77,71,65,58,56,54,73,64,54,29.92,29.89,29.87,10,10,10,13,4,17,0.00,4,,201
2013-6-10,80,72,64,57,55,52,73,56,39,29.95,29.91,29.88,10,10,10,13,4,18,0.00,4,,221
2013-6-11,88,76,64,61,58,56,78,58,37,29.94,29.90,29.87,10,10,9,9,3,17,0.00,1,,259
2013-6-12,75,71,67,59,58,57,78,68,57,30.03,29.97,29.92,10,10,7,10,3,13,0.00,6,,212
2013-6-13,81,74,66,57,57,55,73,58,42,30.00,29.95,29.88,10,8,4,12,3,16,0.00,4,,221
2013-6-14,78,72,65,58,56,54,78,63,47,29.92,29.89,29.84,10,9,8,13,5,17,0.00,4,,184
2013-6-15,78,71,64,55,54,53,73,58,42,29.97,29.93,29.89,10,9,8,12,3,16,0.00,4,,218
2013-6-16,82,73,64,57,56,54,73,58,42,30.03,29.97,29.93,10,8,6,10,3,,0.00,3,,254
2013-6-17,83,74,64,59,57,56,78,61,43,29.98,29.93,29.88,10,9,5,10,4,,0.00,3,,187
2013-6-18,81,73,65,59,58,56,84,63,42,29.92,29.87,29.83,10,8,5,10,4,16,0.00,3,,194
2013-6-19,86,76,65,59,56,50,78,55,31,29.87,29.82,29.78,10,9,7,12,3,20,0.00,4,,183
2013-6-20,83,74,64,59,56,50,78,59,40,29.86,29.82,29.79,10,9,7,10,3,17,0.00,1,,196
2013-6-21,83,74,65,59,57,49,84,58,31,29.90,29.86,29.83,10,9,7,12,3,16,0.00,2,,198
2013-6-22,82,74,66,60,57,54,81,62,42,29.90,29.86,29.81,10,9,7,10,6,15,0.00,2,,174
2013-6-23,79,73,66,58,56,55,73,60,47,29.88,29.84,29.80,10,10,8,12,5,17,0.00,5,,186
2013-6-24,80,73,66,59,57,54,73,59,45,29.94,29.90,29.82,10,10,9,8,5,,0.00,6,,208
2013-6-25,82,74,66,61,59,57,78,64,49,29.99,29.94,29.89,10,10,7,8,3,13,0.00,4,,254
2013-6-26,88,77,66,62,60,59,81,60,39,29.98,29.94,29.88,10,10,8,10,3,15,0.00,1,,208
2013-6-27,92,81,69,63,62,60,78,58,38,30.01,29.99,29.96,10,9,5,10,3,14,0.00,1,,203
2013-6-28,94,81,67,63,62,60,87,62,36,29.99,29.93,29.85,10,8,4,13,4,15,0.00,3,,196
2013-6-29,94,83,71,64,62,61,68,52,36,29.86,29.79,29.72,10,10,8,9,3,,0.00,0,,203
2013-6-30,93,83,72,65,64,62,79,60,41,29.81,29.75,29.70,10,10,8,13,3,17,0.00,0,,211